WMKN/TGG METAR and TAF weather

Enter ICAO airport designator
Station Type Date Time Source
WMKN METAR 2024/04/17 18:00 UTC NOAA

WMKN 171800Z VRB02KT 9999 FEW022 28/25 Q1008


Station Type Date Time Source
WMKN Decoded METAR 2024/04/17 18:00 UTC NOAA

Station name not available
Apr 17, 2024 - 02:00 PM EDT / 2024.04.17 1800 UTC
Wind: Variable at 2 MPH (2 KT):0
Visibility: greater than 7 mile(s):0
Sky conditions: mostly clear
Temperature: 82 F (28 C)
Dew Point: 77 F (25 C)
Relative Humidity: 83%
Pressure (altimeter): 29.77 in. Hg (1008 hPa)
ob: WMKN 171800Z VRB02KT 9999 FEW022 28/25 Q1008
cycle: 18

Station Type Date Time Source
WMKN TAF 2024/04/17 18:00 UTC NOAA